Time;durP1;ratioP1;P1;durP2;ratioP2;P2;SDS_P1;SDS_P2;PMS_P1;PMS_P2;Temp;Humidity;BMP_temperature;BMP_pressure;BME280_temperature;BME280_humidity;BME280_pressure;Samples;Min_cycle;Max_cycle;Signal;HPM_P1;HPM_P2
2024/04/08 00:03:01;;;;;;;12.05;2.25;;;13.80;1.00;;;;;;4954737;28;37428;-79
2024/04/08 00:05:45;;;;;;;11.35;2.80;;;13.80;1.00;;;;;;4966700;28;50003;-81
2024/04/08 00:08:45;;;;;;;6.72;1.77;;;13.80;1.00;;;;;;4978573;28;38980;-84
2024/04/08 00:15:32;;;;;;;6.93;1.92;;;13.80;1.00;;;;;;4952985;28;50552;-80
2024/04/08 00:18:15;;;;;;;14.60;3.22;;;13.70;1.00;;;;;;4948907;28;48953;-80
2024/04/08 00:21:01;;;;;;;8.52;2.00;;;13.70;1.00;;;;;;4967540;28;50016;-81
2024/04/08 00:23:37;;;;;;;12.15;2.38;;;13.70;1.00;;;;;;4966723;28;39468;-80
2024/04/08 00:26:10;;;;;;;10.98;2.13;;;13.70;1.00;;;;;;4931094;28;37524;-80
2024/04/08 00:29:00;;;;;;;;;;;13.70;4.30;;;;;;4973061;28;41853;-81
2024/04/08 00:32:15;;;;;;;10.40;2.17;;;13.70;5.20;;;;;;4934172;28;49055;-81
2024/04/08 00:35:29;;;;;;;11.90;2.50;;;13.60;1.00;;;;;;5088767;23;49001;-79
2024/04/08 00:38:19;;;;;;;13.35;2.47;;;13.60;1.60;;;;;;4967644;28;48182;-79
2024/04/08 00:41:23;;;;;;;13.70;1.77;;;13.60;7.30;;;;;;4968683;28;49954;-80
2024/04/08 00:47:05;;;;;;;14.27;2.05;;;13.60;1.00;;;;;;4960981;23;20042;-80
2024/04/08 00:50:32;;;;;;;11.02;2.28;;;13.60;1.00;;;;;;4951620;28;38057;-82
2024/04/08 00:56:58;;;;;;;10.25;1.92;;;13.60;1.00;;;;;;4966764;28;39614;-80
2024/04/08 00:59:39;;;;;;;9.50;2.38;;;13.60;1.00;;;;;;4961766;28;38517;-81
2024/04/08 01:04:49;;;;;;;8.15;1.75;;;13.60;1.00;;;;;;5041135;23;20046;-82
2024/04/08 01:07:48;;;;;;;12.55;2.20;;;13.50;1.00;;;;;;4909330;28;38872;-81
2024/04/08 01:10:38;;;;;;;10.75;2.22;;;13.60;1.00;;;;;;4999027;23;39692;-81
2024/04/08 01:16:30;;;;;;;9.25;2.33;;;13.60;1.00;;;;;;5093937;23;20040;-80
2024/04/08 01:19:32;;;;;;;11.85;2.70;;;13.60;1.00;;;;;;4926442;28;39190;-81
2024/04/08 01:26:31;;;;;;;8.38;2.15;;;13.60;1.00;;;;;;4961289;28;50634;-84
2024/04/08 01:32:06;;;;;;;11.40;2.72;;;13.50;1.00;;;;;;5090196;23;20052;-81
2024/04/08 01:35:12;;;;;;;11.18;2.15;;;13.50;1.00;;;;;;4966632;28;49026;-80
2024/04/08 01:41:18;;;;;;;11.48;2.20;;;13.50;17.60;;;;;;5413378;23;20045;-80
2024/04/08 01:47:33;;;;;;;;;;;;;;;;;;;;;
2024/04/08 01:53:02;;;;;;;12.27;2.55;;;13.30;22.40;;;;;;5276140;23;20038;-81
2024/04/08 01:55:46;;;;;;;7.45;2.15;;;13.20;23.10;;;;;;4956628;28;39783;-80
2024/04/08 01:59:34;;;;;;;14.27;2.50;;;13.20;21.80;;;;;;4930309;28;39360;-80
2024/04/08 02:05:19;;;;;;;12.07;2.53;;;13.00;25.90;;;;;;5101576;23;20042;-80
2024/04/08 02:08:19;;;;;;;12.82;2.80;;;12.90;35.30;;;;;;4925686;28;37800;-81
2024/04/08 02:11:05;;;;;;;11.55;2.22;;;12.80;49.70;;;;;;5100190;23;47994;-80
2024/04/08 02:20:36;;;;;;;13.23;2.95;;;12.70;80.50;;;;;;4884546;28;40308;-81
2024/04/08 02:23:51;;;;;;;10.23;2.78;;;12.70;93.30;;;;;;4920586;28;48644;-81
2024/04/08 02:26:54;;;;;;;14.25;2.80;;;12.80;96.40;;;;;;4954304;28;38619;-80
2024/04/08 02:30:12;;;;;;;11.75;3.00;;;12.70;99.30;;;;;;4950522;28;39247;-80
2024/04/08 02:33:22;;;;;;;6.97;2.15;;;12.70;99.90;;;;;;4916328;29;50288;-81
2024/04/08 02:36:58;;;;;;;10.23;3.10;;;12.70;99.90;;;;;;4876507;28;49039;-80
2024/04/08 02:39:54;;;;;;;12.95;4.00;;;12.80;99.90;;;;;;4958534;28;37263;-81
2024/04/08 02:47:37;;;;;;;10.70;4.25;;;12.70;99.90;;;;;;5529645;23;20063;-81
2024/04/08 02:50:12;;;;;;;11.15;4.53;;;12.80;99.90;;;;;;4957257;28;36996;-80
2024/04/08 02:56:43;;;;;;;8.32;4.53;;;12.70;99.90;;;;;;4933296;28;50192;-81
2024/04/08 02:59:27;;;;;;;12.98;4.57;;;12.70;99.90;;;;;;4968909;28;38678;-80
2024/04/08 03:02:24;;;;;;;12.00;4.97;;;12.70;99.90;;;;;;4938000;28;37582;-82
2024/04/08 03:18:27;;;;;;;11.23;5.95;;;12.40;99.90;;;;;;5141994;23;20058;-81
2024/04/08 03:35:07;;;;;;;12.70;6.43;;;12.40;99.90;;;;;;4327981;26;20062;-80
2024/04/08 03:38:14;;;;;;;11.38;7.32;;;12.40;99.90;;;;;;5001680;28;49052;-80
2024/04/08 03:41:44;;;;;;;12.05;6.50;;;12.30;99.90;;;;;;4967819;28;49568;-81
2024/04/08 03:44:33;;;;;;;10.20;6.93;;;12.30;99.90;;;;;;4985250;28;50078;-80
2024/04/08 03:48:04;;;;;;;18.63;9.27;;;12.30;99.90;;;;;;4998945;28;38611;-79
2024/04/08 04:19:22;;;;;;;14.07;9.63;;;12.10;99.90;;;;;;5016505;23;20043;-80
2024/04/08 04:22:22;;;;;;;16.85;9.05;;;12.10;99.90;;;;;;4972767;28;40210;-80
2024/04/08 04:25:30;;;;;;;14.93;10.18;;;12.10;99.90;;;;;;4951713;28;49060;-82
2024/04/08 04:28:19;;;;;;;15.25;8.65;;;12.00;99.90;;;;;;4931759;28;48917;-80
2024/04/08 04:36:52;;;;;;;;;;;12.10;99.90;;;;;;5261531;22;20071;-81
2024/04/08 04:43:11;;;;;;;12.85;8.82;;;12.20;99.90;;;;;;5399518;23;38633;-79
2024/04/08 04:46:12;;;;;;;9.98;8.18;;;12.30;99.90;;;;;;4949350;28;47286;-81
2024/04/08 04:51:53;;;;;;;12.57;8.48;;;12.30;99.90;;;;;;5728940;23;20046;-83
2024/04/08 04:54:39;;;;;;;10.70;9.18;;;12.40;99.90;;;;;;5680888;23;38739;-78
2024/04/08 05:02:26;;;;;;;15.90;8.10;;;12.30;99.90;;;;;;5113110;23;20039;-80
2024/04/08 05:05:41;;;;;;;11.98;8.82;;;12.40;99.90;;;;;;4965980;28;37039;-82
2024/04/08 05:08:27;;;;;;;13.43;9.30;;;12.30;99.90;;;;;;5191723;23;50089;-80
2024/04/08 05:11:14;;;;;;;15.50;9.43;;;12.30;99.90;;;;;;4950512;28;39689;-81
2024/04/08 05:13:51;;;;;;;15.40;9.88;;;12.30;99.90;;;;;;4913175;28;49410;-80
2024/04/08 05:16:54;;;;;;;13.45;9.93;;;12.30;99.90;;;;;;4933338;28;38702;-80
2024/04/08 05:19:38;;;;;;;13.35;10.38;;;12.40;99.90;;;;;;4952633;28;39329;-80
2024/04/08 05:22:47;;;;;;;15.27;9.50;;;12.40;99.90;;;;;;4951085;28;38352;-82
2024/04/08 05:25:42;;;;;;;11.02;9.52;;;12.40;99.90;;;;;;4953141;28;38859;-81
2024/04/08 05:28:57;;;;;;;14.40;10.30;;;12.40;99.90;;;;;;4932107;28;38635;-82
2024/04/08 05:31:54;;;;;;;13.07;9.95;;;12.40;99.90;;;;;;4944348;28;40220;-82
2024/04/08 05:34:38;;;;;;;12.85;9.52;;;12.40;99.90;;;;;;4933588;28;39750;-79
2024/04/08 05:37:05;;;;;;;11.77;9.05;;;12.40;99.90;;;;;;4936432;23;39410;-77
2024/04/08 06:10:50;;;;;;;12.52;9.48;;;12.70;99.90;;;;;;5736486;23;20044;-79
2024/04/08 06:21:28;;;;;;;13.70;9.00;;;13.10;99.90;;;;;;4930494;28;20052;-77
2024/04/08 06:23:54;;;;;;;13.43;8.52;;;13.10;99.90;;;;;;4943211;28;38642;-78
2024/04/08 06:26:20;;;;;;;10.73;8.15;;;13.10;99.90;;;;;;4923790;28;38802;-78
2024/04/08 06:30:36;;;;;;;14.48;8.45;;;13.10;99.90;;;;;;5310186;26;20335;-77
2024/04/08 06:33:03;;;;;;;10.68;7.53;;;13.10;99.90;;;;;;5264858;26;35995;-78
2024/04/08 06:35:29;;;;;;;14.35;9.07;;;13.10;99.90;;;;;;5263676;26;37365;-78
2024/04/08 06:38:24;;;;;;;12.70;8.43;;;13.20;99.90;;;;;;5272162;26;39901;-87
2024/04/08 07:08:39;;;;;;;8.70;6.60;;;13.60;99.90;;;;;;5193174;27;39232;-86
2024/04/08 07:11:50;;;;;;;10.80;6.03;;;13.60;99.90;;;;;;5153150;27;38425;-85
2024/04/08 07:14:31;;;;;;;12.80;6.15;;;13.60;99.90;;;;;;5080309;27;37493;-86
2024/04/08 07:16:57;;;;;;;8.32;5.85;;;13.60;99.90;;;;;;5099600;27;37680;-76
2024/04/08 07:19:23;;;;;;;7.55;4.95;;;13.70;99.90;;;;;;5088649;27;36726;-76
2024/04/08 07:21:49;;;;;;;9.32;5.82;;;13.70;99.90;;;;;;5252781;26;37224;-85
2024/04/08 07:24:15;;;;;;;8.85;5.35;;;13.90;99.90;;;;;;5257058;26;36073;-85
2024/04/08 07:27:39;;;;;;;8.15;5.18;;;13.90;99.90;;;;;;5257083;26;42626;-85
2024/04/08 07:44:41;;;;;;;11.63;7.78;;;14.20;91.50;;;;;;5133707;27;48990;-85
2024/04/08 07:47:45;;;;;;;;;;;;;;;;;;;;;
2024/04/08 07:58:34;;;;;;;;;;;;;;;;;;;;;
2024/04/08 08:01:10;;;;;;;14.55;7.97;;;14.40;57.20;;;;;;4937997;28;38111;-86
2024/04/08 08:03:36;;;;;;;12.02;7.22;;;14.40;61.10;;;;;;4957311;28;47226;-82
2024/04/08 08:06:14;;;;;;;11.23;7.50;;;14.60;67.20;;;;;;5000450;28;38596;-86
2024/04/08 08:08:46;;;;;;;13.40;7.05;;;14.60;55.60;;;;;;4986980;27;47650;-85
2024/04/08 08:11:12;;;;;;;14.32;7.18;;;14.70;45.30;;;;;;5058805;27;38805;-85
2024/04/08 08:13:42;;;;;;;9.38;6.97;;;14.70;45.30;;;;;;5156899;27;37705;-85
2024/04/08 08:16:10;;;;;;;9.38;6.95;;;14.80;45.60;;;;;;5173320;27;37904;-83
2024/04/08 08:18:36;;;;;;;16.40;7.75;;;15.00;33.10;;;;;;5204209;27;38705;-80
2024/04/08 08:21:05;;;;;;;11.43;7.65;;;14.70;22.00;;;;;;5193249;27;37034;-81
2024/04/08 08:23:31;;;;;;;10.80;7.05;;;14.60;27.80;;;;;;5219495;27;36105;-86
2024/04/08 08:25:58;;;;;;;14.35;6.50;;;14.70;23.60;;;;;;5215764;27;38669;-79
2024/04/08 08:28:24;;;;;;;10.20;6.60;;;14.70;22.50;;;;;;5197881;27;37226;-80
2024/04/08 08:30:52;;;;;;;14.23;6.85;;;14.90;14.80;;;;;;5209361;27;38186;-80
2024/04/08 08:33:21;;;;;;;10.82;6.65;;;15.10;14.00;;;;;;5200071;26;36360;-81
2024/04/08 08:35:48;;;;;;;12.10;6.03;;;15.00;11.60;;;;;;5230597;27;39213;-81
2024/04/08 08:38:14;;;;;;;9.38;6.07;;;15.10;14.50;;;;;;5227850;26;37026;-82
2024/04/08 08:40:44;;;;;;;11.30;5.78;;;15.40;1.00;;;;;;5227731;26;39213;-81
2024/04/08 08:43:11;;;;;;;10.30;5.07;;;15.60;1.00;;;;;;5258022;26;36015;-81
2024/04/08 08:46:35;;;;;;;;;;;;;;;;;;;;;
2024/04/08 08:49:05;;;;;;;8.95;4.95;;;15.60;1.00;;;;;;5245749;26;47964;-88
2024/04/08 08:59:30;;;;;;;;;;;;;;;;;;;;;
2024/04/08 09:09:11;;;;;;;;;;;;;;;;;;;;;
2024/04/08 09:11:53;;;;;;;8.32;4.22;;;16.70;1.00;;;;;;5140098;27;48729;-76
2024/04/08 09:14:22;;;;;;;6.97;4.75;;;16.60;1.00;;;;;;5219274;27;38400;-84
2024/04/08 09:20:08;;;;;;;11.25;5.43;;;16.20;1.00;;;;;;5234766;26;48882;-84
2024/04/08 09:23:11;;;;;;;8.60;5.20;;;16.30;1.00;;;;;;5239034;26;37795;-85
2024/04/08 09:35:39;;;;;;;4.38;2.78;;;16.30;1.00;;;;;;5099887;27;38494;-84
2024/04/08 09:46:09;;;;;;;6.63;2.05;;;16.50;1.00;;;;;;4992358;28;38756;-84
2024/04/08 09:49:54;;;;;;;;;;;;;;;;;;;;;
2024/04/08 09:53:29;;;;;;;4.95;1.58;;;16.60;1.00;;;;;;4946683;28;39225;-85
2024/04/08 09:59:57;;;;;;;6.40;2.00;;;16.40;1.00;;;;;;4450266;29;10096034;-84
2024/04/08 10:03:23;;;;;;;6.18;2.30;;;16.70;1.00;;;;;;4945726;28;38765;-85
2024/04/08 10:06:03;;;;;;;6.10;2.50;;;16.60;1.00;;;;;;4911604;28;48772;-86
2024/04/08 10:12:39;;;;;;;5.35;2.60;;;16.60;1.00;;;;;;5070321;27;37381;-86
2024/04/08 10:15:11;;;;;;;6.03;3.10;;;16.70;1.00;;;;;;5066900;27;37732;-86
2024/04/08 10:18:05;;;;;;;4.80;2.83;;;16.50;1.00;;;;;;5185612;27;38513;-86
2024/04/08 10:20:52;;;;;;;5.50;2.85;;;16.50;1.00;;;;;;5204271;27;48278;-84
2024/04/08 10:27:11;;;;;;;7.13;3.10;;;16.50;1.00;;;;;;5049941;27;49458;-81
2024/04/08 10:30:04;;;;;;;4.55;3.25;;;16.70;1.00;;;;;;5127833;27;39384;-86
2024/04/08 10:32:48;;;;;;;5.93;3.75;;;16.80;1.00;;;;;;5129711;27;38585;-85
2024/04/08 10:39:26;;;;;;;5.80;3.90;;;16.50;1.00;;;;;;5226689;26;49182;-84
2024/04/08 10:49:36;;;;;;;5.82;4.03;;;16.60;1.00;;;;;;5145337;27;37905;-85
2024/04/08 10:53:20;;;;;;;;;;;;;;;;;;;;;
2024/04/08 10:56:26;;;;;;;8.85;4.60;;;17.30;1.00;;;;;;5051380;28;38816;-85
2024/04/08 10:59:36;;;;;;;;;;;;;;;;;;;;;
2024/04/08 11:02:18;;;;;;;5.53;3.78;;;17.30;1.00;;;;;;5129072;27;48373;-85
2024/04/08 11:05:17;;;;;;;10.52;5.00;;;17.60;1.00;;;;;;5150179;27;37972;-84
2024/04/08 11:11:28;;;;;;;8.18;4.22;;;17.50;1.00;;;;;;5147221;27;48449;-87
2024/04/08 11:13:56;;;;;;;7.05;4.05;;;17.60;1.00;;;;;;5229171;27;38094;-87
2024/04/08 11:16:22;;;;;;;6.03;4.00;;;17.40;1.00;;;;;;5205840;27;36038;-91
2024/04/08 11:18:54;;;;;;;6.90;4.20;;;17.70;1.00;;;;;;5230181;27;40613;-92
2024/04/08 12:03:45;;;;;;;;;;;;;;;;;;;;;
2024/04/08 12:19:48;;;;;;;3.25;2.40;;;18.80;1.00;;;;;;5320651;26;20355;-83
2024/04/08 12:22:17;;;;;;;3.80;2.15;;;18.60;1.00;;;;;;5285888;26;39292;-85
2024/04/08 12:24:43;;;;;;;4.78;2.05;;;18.70;1.00;;;;;;5286726;26;38070;-85
2024/04/08 12:27:12;;;;;;;4.43;2.22;;;19.00;1.00;;;;;;5344153;26;37945;-84
2024/04/08 12:29:39;;;;;;;4.18;2.58;;;19.40;1.00;;;;;;5287541;26;38346;-84
2024/04/08 12:32:05;;;;;;;4.38;2.42;;;19.00;99.90;;;;;;5313085;26;36826;-84
2024/04/08 12:34:32;;;;;;;5.95;2.20;;;19.00;1.00;;;;;;5350131;26;36057;-86
2024/04/08 12:36:58;;;;;;;2.40;1.98;;;19.00;1.00;;;;;;5289466;26;37423;-84
2024/04/08 12:39:24;;;;;;;6.18;2.63;;;19.30;1.00;;;;;;5343187;26;37649;-83
2024/04/08 12:41:51;;;;;;;3.75;2.38;;;19.50;1.00;;;;;;5337539;26;38136;-85
2024/04/08 12:44:17;;;;;;;3.83;1.70;;;19.70;1.00;;;;;;5286950;26;38304;-86
2024/04/08 12:46:47;;;;;;;2.80;1.70;;;19.50;99.90;;;;;;5288561;26;37767;-86
2024/04/08 12:49:24;;;;;;;3.00;1.60;;;19.20;99.90;;;;;;5346643;26;39076;-84
2024/04/08 12:51:50;;;;;;;3.42;1.73;;;19.40;99.90;;;;;;5282870;26;38698;-84
2024/04/08 12:54:16;;;;;;;4.30;1.83;;;19.50;99.90;;;;;;5285155;26;36353;-84
2024/04/08 12:56:43;;;;;;;3.15;1.75;;;19.60;99.90;;;;;;5325383;26;39887;-84
2024/04/08 12:59:10;;;;;;;4.72;1.80;;;19.80;57.40;;;;;;5316356;26;38836;-84
2024/04/08 13:01:36;;;;;;;3.60;1.42;;;19.50;99.90;;;;;;5333370;26;36992;-85
2024/04/08 13:04:12;;;;;;;9.55;1.92;;;19.60;99.90;;;;;;5285211;26;37027;-85
2024/04/08 13:06:42;;;;;;;2.28;1.40;;;19.40;99.90;;;;;;5302165;26;39956;-85
2024/04/08 13:09:10;;;;;;;4.47;1.40;;;19.20;99.90;;;;;;5293376;26;38665;-82
2024/04/08 13:11:36;;;;;;;7.65;2.00;;;19.10;99.90;;;;;;5299712;26;39736;-82
2024/04/08 13:14:04;;;;;;;6.00;1.40;;;18.90;1.00;;;;;;5290768;26;38819;-84
2024/04/08 13:16:33;;;;;;;17.27;2.60;;;18.90;99.90;;;;;;5342725;26;37801;-84
2024/04/08 13:19:00;;;;;;;4.75;1.48;;;19.00;99.90;;;;;;5288472;26;37478;-84
2024/04/08 13:21:26;;;;;;;2.83;1.10;;;19.00;99.90;;;;;;5281140;26;37981;-84
2024/04/08 13:23:52;;;;;;;3.53;1.17;;;19.20;99.90;;;;;;5288167;26;37874;-84
2024/04/08 13:26:22;;;;;;;2.70;1.20;;;19.30;99.90;;;;;;5292267;26;39417;-83
2024/04/08 13:28:48;;;;;;;4.40;1.20;;;19.70;99.90;;;;;;5293944;26;38819;-82
2024/04/08 13:31:17;;;;;;;3.88;1.63;;;20.10;99.90;;;;;;5318051;26;36839;-82
2024/04/08 13:33:43;;;;;;;5.30;1.60;;;20.00;1.00;;;;;;5326481;26;36042;-84
2024/04/08 13:36:09;;;;;;;2.55;1.25;;;20.00;1.00;;;;;;5332669;26;37798;-84
2024/04/08 13:38:37;;;;;;;3.22;1.55;;;20.10;1.00;;;;;;5272105;26;37792;-84
2024/04/08 13:41:04;;;;;;;3.15;1.70;;;19.60;99.90;;;;;;5273047;26;39179;-83
2024/04/08 13:43:30;;;;;;;151.85;15.98;;;19.70;99.90;;;;;;5266120;26;36286;-82
2024/04/08 13:45:59;;;;;;;22.33;3.30;;;19.90;99.90;;;;;;5319871;26;38616;-82
2024/04/08 13:48:25;;;;;;;2.17;1.65;;;20.00;1.00;;;;;;5263097;26;39059;-82
2024/04/08 13:50:51;;;;;;;2.67;1.85;;;20.10;1.00;;;;;;5271352;26;39293;-82
2024/04/08 13:53:18;;;;;;;3.65;2.05;;;19.80;19.90;;;;;;5273661;26;38612;-81
2024/04/08 13:55:57;;;;;;;200.52;18.55;;;19.50;99.90;;;;;;5269508;26;37908;-81
2024/04/08 13:58:25;;;;;;;26.60;4.95;;;19.60;99.90;;;;;;5295458;26;39380;-81
2024/04/08 14:00:52;;;;;;;3.40;2.17;;;19.70;99.90;;;;;;5252753;26;37637;-83
2024/04/08 14:03:19;;;;;;;3.20;1.48;;;19.60;99.90;;;;;;5274550;26;38206;-82
2024/04/08 14:05:47;;;;;;;3.55;1.95;;;19.70;99.90;;;;;;5296233;26;38154;-82
2024/04/08 14:08:19;;;;;;;6.93;2.45;;;19.60;1.00;;;;;;5268809;26;37128;-83
2024/04/08 14:10:45;;;;;;;2.70;1.30;;;19.50;99.90;;;;;;5264390;26;38414;-83
2024/04/08 14:13:11;;;;;;;4.38;1.42;;;19.40;99.90;;;;;;5273143;26;36144;-83
2024/04/08 14:15:37;;;;;;;4.00;1.73;;;19.50;1.00;;;;;;5274218;26;37746;-82
2024/04/08 14:18:06;;;;;;;2.13;1.60;;;19.40;99.90;;;;;;5293470;26;37596;-82
2024/04/08 14:20:32;;;;;;;4.97;1.08;;;19.40;99.90;;;;;;5262881;26;37279;-82
2024/04/08 14:22:59;;;;;;;4.18;1.70;;;19.40;99.90;;;;;;5321993;26;36317;-83
2024/04/08 14:25:27;;;;;;;2.67;1.23;;;19.40;99.90;;;;;;5326470;26;37900;-82
2024/04/08 14:27:53;;;;;;;3.65;1.80;;;19.50;99.90;;;;;;5278863;26;38849;-81
2024/04/08 14:30:19;;;;;;;3.47;1.50;;;19.50;99.90;;;;;;5276501;26;37542;-82
2024/04/08 14:32:46;;;;;;;3.42;1.70;;;19.50;99.90;;;;;;5276225;26;37535;-81
2024/04/08 14:35:12;;;;;;;2.83;1.67;;;19.60;99.90;;;;;;5305052;26;39426;-81
2024/04/08 14:37:38;;;;;;;2.47;1.75;;;19.60;99.90;;;;;;5269613;26;36884;-82
2024/04/08 14:40:07;;;;;;;33.92;5.10;;;19.70;99.90;;;;;;5277512;26;39527;-81
2024/04/08 14:42:33;;;;;;;9.27;2.60;;;19.70;99.90;;;;;;5286392;26;47505;-82
2024/04/08 14:45:00;;;;;;;5.60;1.63;;;19.90;99.90;;;;;;5277767;26;37950;-82
2024/04/08 14:47:26;;;;;;;3.83;1.70;;;20.00;99.90;;;;;;5278727;26;36460;-88
2024/04/08 14:49:54;;;;;;;83.97;10.20;;;20.20;99.90;;;;;;5321860;26;37839;-82
2024/04/08 14:52:21;;;;;;;23.65;4.47;;;20.00;99.90;;;;;;5276656;26;37240;-82
2024/04/08 14:54:47;;;;;;;30.42;4.35;;;20.10;99.90;;;;;;5275263;26;37260;-83
2024/04/08 14:57:16;;;;;;;4.65;1.40;;;20.10;1.00;;;;;;5263981;26;37888;-81
2024/04/08 14:59:43;;;;;;;3.70;1.40;;;20.00;1.00;;;;;;5254701;26;36721;-83
2024/04/08 15:02:09;;;;;;;1.85;1.00;;;20.00;1.00;;;;;;5327848;26;38163;-82
2024/04/08 15:04:35;;;;;;;2.65;1.15;;;20.10;1.00;;;;;;5277271;26;38224;-81
2024/04/08 15:07:02;;;;;;;3.95;1.63;;;20.30;99.90;;;;;;5263590;26;37051;-82
2024/04/08 15:09:28;;;;;;;3.40;1.48;;;20.60;1.00;;;;;;5263912;26;47534;-80
2024/04/08 15:11:54;;;;;;;3.08;1.75;;;21.00;93.00;;;;;;5318629;26;37590;-83
2024/04/08 15:14:20;;;;;;;4.20;1.98;;;21.00;99.90;;;;;;5311476;26;37969;-82
2024/04/08 15:16:46;;;;;;;2.53;1.33;;;20.90;99.90;;;;;;5267874;26;40035;-83
2024/04/08 15:19:12;;;;;;;7.38;1.63;;;20.70;1.00;;;;;;5264621;26;39308;-84
2024/04/08 15:21:39;;;;;;;2.85;1.58;;;20.70;1.00;;;;;;5321109;26;37521;-83
2024/04/08 15:24:08;;;;;;;5.07;1.65;;;20.70;1.00;;;;;;5267350;26;39573;-83
2024/04/08 15:26:36;;;;;;;4.93;1.60;;;20.60;1.00;;;;;;5320198;26;38296;-84
2024/04/08 15:29:02;;;;;;;5.22;1.80;;;20.60;1.00;;;;;;5262262;26;37915;-88
2024/04/08 15:31:28;;;;;;;5.38;1.65;;;20.60;99.90;;;;;;5250708;26;36223;-83
2024/04/08 15:33:54;;;;;;;5.40;1.58;;;20.60;96.60;;;;;;5272792;26;39703;-81
2024/04/08 15:36:21;;;;;;;6.75;1.55;;;20.50;1.00;;;;;;5263769;26;38965;-82
2024/04/08 15:38:47;;;;;;;7.18;1.88;;;20.60;99.90;;;;;;5268007;26;38179;-83
2024/04/08 15:41:13;;;;;;;3.75;1.60;;;20.70;1.00;;;;;;5263222;26;36210;-83
2024/04/08 15:43:42;;;;;;;3.75;2.00;;;20.70;1.00;;;;;;5329475;26;39320;-83
2024/04/08 15:46:13;;;;;;;4.03;1.48;;;20.60;1.00;;;;;;5292956;26;39811;-81
2024/04/08 15:48:40;;;;;;;4.50;1.67;;;20.60;1.00;;;;;;5302701;26;37807;-82
2024/04/08 15:51:08;;;;;;;3.38;1.70;;;20.70;99.90;;;;;;5246624;26;41373;-81
2024/04/08 15:53:37;;;;;;;3.00;1.50;;;20.60;99.90;;;;;;5302544;26;39089;-83
2024/04/08 15:56:04;;;;;;;8.35;2.00;;;20.60;1.00;;;;;;5254323;26;38030;-82
2024/04/08 15:58:30;;;;;;;31.23;4.90;;;20.40;99.90;;;;;;5236211;26;36596;-83
2024/04/08 16:01:05;;;;;;;9.57;1.90;;;20.40;1.00;;;;;;5239018;26;39180;-82
2024/04/08 16:03:32;;;;;;;9.32;2.55;;;20.50;1.00;;;;;;5226100;26;46918;-82
2024/04/08 16:06:12;;;;;;;6.22;1.52;;;20.40;1.00;;;;;;5210931;26;37280;-82
2024/04/08 16:08:39;;;;;;;7.43;1.60;;;20.50;1.00;;;;;;5291509;26;47518;-82
2024/04/08 16:11:05;;;;;;;5.43;1.92;;;20.50;99.90;;;;;;5259228;26;37585;-83
2024/04/08 16:13:32;;;;;;;5.20;1.50;;;20.50;99.90;;;;;;5267278;26;40443;-82
2024/04/08 16:15:58;;;;;;;6.63;1.95;;;20.60;99.90;;;;;;5264056;26;37235;-83
2024/04/08 16:18:25;;;;;;;4.75;1.75;;;20.60;1.00;;;;;;5269480;26;37334;-82
2024/04/08 16:21:01;;;;;;;6.47;1.80;;;20.60;99.90;;;;;;5261298;26;40327;-82
2024/04/08 16:23:29;;;;;;;4.00;1.90;;;20.60;1.00;;;;;;5243758;26;48562;-83
2024/04/08 16:25:57;;;;;;;5.88;1.70;;;20.40;1.00;;;;;;5232022;27;37763;-82
2024/04/08 16:28:23;;;;;;;5.15;2.00;;;20.30;1.00;;;;;;5232457;26;38308;-83
2024/04/08 16:30:54;;;;;;;6.30;2.05;;;20.30;1.00;;;;;;5223914;27;36426;-81
2024/04/08 16:33:20;;;;;;;4.82;2.00;;;20.30;1.00;;;;;;5225975;26;41300;-83
2024/04/08 16:35:47;;;;;;;7.07;2.13;;;20.30;1.00;;;;;;5241400;27;39627;-81
2024/04/08 16:38:13;;;;;;;7.40;2.33;;;20.30;1.00;;;;;;5222532;26;37923;-81
2024/04/08 16:40:39;;;;;;;5.68;2.13;;;20.30;99.90;;;;;;5229497;27;37486;-82
2024/04/08 16:43:05;;;;;;;7.72;2.28;;;20.20;1.00;;;;;;5243755;26;39593;-81
2024/04/08 16:45:32;;;;;;;5.60;2.13;;;20.10;1.00;;;;;;5225768;27;36920;-82
2024/04/08 16:47:58;;;;;;;10.32;2.03;;;20.20;1.00;;;;;;5228572;26;37620;-81
2024/04/08 16:50:24;;;;;;;6.38;2.00;;;20.20;1.00;;;;;;5276690;26;37062;-80
2024/04/08 16:52:50;;;;;;;5.78;1.90;;;20.30;99.90;;;;;;5267517;26;39663;-82
2024/04/08 16:55:16;;;;;;;8.38;2.33;;;20.30;99.90;;;;;;5272113;26;38244;-82
2024/04/08 16:57:42;;;;;;;6.15;2.17;;;20.20;99.90;;;;;;5265031;26;38033;-82
2024/04/08 17:00:09;;;;;;;7.72;2.17;;;20.10;99.90;;;;;;5264340;26;38495;-81
2024/04/08 17:02:36;;;;;;;10.75;2.50;;;20.10;99.90;;;;;;5271386;26;38122;-82
2024/04/08 17:05:03;;;;;;;7.35;2.80;;;20.10;1.00;;;;;;5268585;26;40170;-82
2024/04/08 17:07:32;;;;;;;10.80;2.55;;;20.00;1.00;;;;;;5268199;26;38483;-82
2024/04/08 17:09:59;;;;;;;7.38;2.38;;;20.00;1.00;;;;;;5247601;26;37029;-82
2024/04/08 17:12:25;;;;;;;7.38;2.30;;;19.90;1.00;;;;;;5309359;26;39537;-80
2024/04/08 17:14:52;;;;;;;5.78;2.35;;;19.90;1.00;;;;;;5244381;26;38136;-80
2024/04/08 17:17:18;;;;;;;8.40;2.53;;;19.80;1.00;;;;;;5247435;26;37753;-83
2024/04/08 17:19:45;;;;;;;8.90;2.55;;;19.80;1.00;;;;;;5247731;26;36308;-81
2024/04/08 17:22:11;;;;;;;10.23;2.47;;;19.80;1.00;;;;;;5299981;26;38768;-81
2024/04/08 17:24:39;;;;;;;13.20;2.65;;;19.80;90.60;;;;;;5308224;26;38332;-80
2024/04/08 17:27:06;;;;;;;6.07;2.35;;;19.80;99.90;;;;;;5250210;26;37262;-82
2024/04/08 17:29:32;;;;;;;8.75;2.15;;;19.80;99.90;;;;;;5300988;26;35992;-81
2024/04/08 17:31:58;;;;;;;9.43;2.42;;;19.80;99.90;;;;;;5295514;26;37477;-80
2024/04/08 17:34:24;;;;;;;10.10;2.58;;;19.90;99.90;;;;;;5242766;26;36264;-81
2024/04/08 17:36:51;;;;;;;7.63;2.35;;;19.80;99.90;;;;;;5216677;26;37278;-81
2024/04/08 17:39:17;;;;;;;4.38;2.60;;;19.70;1.00;;;;;;5266788;26;37294;-81
2024/04/08 17:41:43;;;;;;;9.30;3.17;;;19.60;1.00;;;;;;5271076;26;37756;-81
2024/04/08 17:44:09;;;;;;;8.13;2.70;;;19.50;1.00;;;;;;5209322;26;37059;-82
2024/04/08 17:46:35;;;;;;;7.13;2.53;;;19.40;1.00;;;;;;5215019;27;37823;-81
2024/04/08 17:49:01;;;;;;;7.13;2.30;;;19.30;1.00;;;;;;5223347;27;35935;-80
2024/04/08 17:51:27;;;;;;;8.48;2.67;;;19.20;1.00;;;;;;5248108;26;48806;-83
2024/04/08 17:53:53;;;;;;;12.20;3.38;;;19.00;1.00;;;;;;5229046;26;38824;-82
2024/04/08 17:56:20;;;;;;;8.90;2.67;;;18.90;1.00;;;;;;5215400;27;36403;-82
2024/04/08 17:58:47;;;;;;;6.93;2.75;;;18.90;1.00;;;;;;5215648;26;36349;-80
2024/04/08 18:01:18;;;;;;;10.45;3.38;;;18.80;1.00;;;;;;5264678;26;38046;-82
2024/04/08 18:03:52;;;;;;;11.30;3.47;;;18.70;1.00;;;;;;5215795;27;36978;-81
2024/04/08 18:06:24;;;;;;;14.07;4.05;;;18.70;1.00;;;;;;5258474;26;36896;-81
2024/04/08 18:08:51;;;;;;;12.80;3.40;;;18.60;1.00;;;;;;5212817;26;36530;-82
2024/04/08 18:11:19;;;;;;;12.00;4.05;;;18.50;1.00;;;;;;5212400;27;37956;-82
2024/04/08 18:13:46;;;;;;;8.82;3.45;;;18.50;1.00;;;;;;5267973;26;40325;-82
2024/04/08 18:16:14;;;;;;;14.00;3.75;;;18.40;1.00;;;;;;5266880;26;36726;-80
2024/04/08 18:18:41;;;;;;;11.80;3.33;;;18.40;1.00;;;;;;5208861;27;37148;-81
2024/04/08 18:21:07;;;;;;;13.75;3.60;;;18.30;1.00;;;;;;5268036;26;39434;-82
2024/04/08 18:23:35;;;;;;;7.78;2.95;;;18.30;1.00;;;;;;5206794;26;38157;-81
2024/04/08 18:26:02;;;;;;;6.10;3.00;;;18.20;1.00;;;;;;5194680;26;37553;-81
2024/04/08 18:28:35;;;;;;;9.85;3.28;;;18.20;1.00;;;;;;5221195;26;47941;-81
2024/04/08 18:31:12;;;;;;;8.63;3.22;;;18.20;1.00;;;;;;5210139;26;39113;-81
2024/04/08 18:33:40;;;;;;;8.40;3.17;;;18.10;1.00;;;;;;5209328;27;37169;-81
2024/04/08 18:36:07;;;;;;;7.07;2.55;;;18.00;1.00;;;;;;5214718;26;37679;-81
2024/04/08 18:38:34;;;;;;;12.55;3.17;;;18.00;1.00;;;;;;5242388;26;35556;-82
2024/04/08 18:41:05;;;;;;;9.32;2.75;;;18.00;1.00;;;;;;5241870;26;39078;-81
2024/04/08 18:43:33;;;;;;;9.10;2.78;;;18.00;1.00;;;;;;5266167;26;47418;-80
2024/04/08 18:46:01;;;;;;;9.35;3.53;;;18.00;1.00;;;;;;5273014;26;39024;-81
2024/04/08 18:48:27;;;;;;;12.10;3.10;;;18.00;1.00;;;;;;5235581;26;49192;-82
2024/04/08 18:50:53;;;;;;;8.00;3.08;;;17.90;1.00;;;;;;5293846;26;38049;-81
2024/04/08 18:53:19;;;;;;;10.75;3.03;;;17.90;1.00;;;;;;5265445;26;38470;-81
2024/04/08 18:55:46;;;;;;;7.68;2.70;;;17.90;1.00;;;;;;5272396;26;37500;-80
2024/04/08 18:58:12;;;;;;;8.52;3.22;;;17.90;1.00;;;;;;5266676;26;37751;-82
2024/04/08 19:00:39;;;;;;;5.00;2.75;;;17.90;1.00;;;;;;5273410;26;39012;-81
2024/04/08 19:03:05;;;;;;;11.52;3.85;;;17.90;1.00;;;;;;5269259;26;37422;-82
2024/04/08 19:05:33;;;;;;;8.00;3.05;;;17.90;1.00;;;;;;5248071;26;38196;-82
2024/04/08 19:08:00;;;;;;;7.40;2.90;;;17.90;1.00;;;;;;5235538;26;36648;-84
2024/04/08 19:10:27;;;;;;;10.57;3.22;;;17.80;1.00;;;;;;5276137;26;41312;-82
2024/04/08 19:12:54;;;;;;;11.95;3.90;;;17.80;1.00;;;;;;5234839;26;38019;-83
2024/04/08 19:15:20;;;;;;;11.90;3.60;;;17.70;1.00;;;;;;5237589;26;38581;-81
2024/04/08 19:17:46;;;;;;;10.27;3.65;;;17.70;1.00;;;;;;5235308;26;38085;-80
2024/04/08 19:20:13;;;;;;;13.07;4.47;;;17.70;1.00;;;;;;5232148;26;39053;-82
2024/04/08 19:22:40;;;;;;;11.07;3.85;;;17.70;1.00;;;;;;5236103;27;37019;-82
2024/04/08 19:25:07;;;;;;;11.57;3.40;;;17.70;1.00;;;;;;5233340;26;39823;-82